createdAt,value
2022-08-08T00:03:31.569Z,15.776768
2022-08-08T00:08:34.546Z,15.550984
2022-08-08T00:14:15.000Z,15.529082
2022-08-08T00:19:19.332Z,15.668374
2022-08-08T00:24:24.160Z,15.267366
2022-08-08T00:29:46.019Z,15.368704
2022-08-08T00:34:48.514Z,15.431544
2022-08-08T00:41:07.631Z,15.74146
2022-08-08T00:46:16.496Z,15.49448
2022-08-08T00:51:18.967Z,15.006098
2022-08-08T00:56:21.089Z,15.02534
2022-08-08T01:01:37.415Z,14.941752
2022-08-08T01:06:40.333Z,14.862316
2022-08-08T01:11:41.977Z,14.642082
2022-08-08T01:16:44.376Z,14.90468
2022-08-08T01:22:10.396Z,14.39228
2022-08-08T01:27:16.119Z,13.58165
2022-08-08T01:32:23.087Z,13.018882
2022-08-08T01:37:56.291Z,13.489852
2022-08-08T01:42:59.746Z,14.103914
2022-08-08T01:48:16.469Z,13.848114
2022-08-08T01:55:16.669Z,13.872838
2022-08-08T02:00:22.097Z,13.971964
2022-08-08T02:05:24.750Z,13.763916
2022-08-08T02:10:44.717Z,13.32258
2022-08-08T02:15:47.002Z,13.53717
2022-08-08T02:21:02.754Z,13.537074
2022-08-08T02:26:06.894Z,13.161062
2022-08-08T02:31:43.909Z,13.183832
2022-08-08T02:37:02.129Z,13.4616
2022-08-08T02:42:07.843Z,13.197252
2022-08-08T02:47:12.321Z,12.783286
2022-08-08T02:52:35.250Z,13.107762
2022-08-08T02:57:44.902Z,12.924952
2022-08-08T03:02:50.592Z,13.10616
2022-08-08T03:07:58.257Z,13.34995
2022-08-08T03:13:01.332Z,12.972446
2022-08-08T03:18:06.417Z,13.314818
2022-08-08T03:23:08.892Z,12.99379
2022-08-08T03:28:18.994Z,12.757408
2022-08-08T03:33:56.745Z,11.996836
2022-08-08T03:39:15.179Z,11.50353
2022-08-08T03:44:17.624Z,10.850484
2022-08-08T03:49:58.196Z,10.502724
2022-08-08T03:55:09.966Z,10.800182
2022-08-08T04:00:18.043Z,10.84298
2022-08-08T04:05:27.363Z,10.476412
2022-08-08T04:10:32.336Z,10.54145
2022-08-08T04:15:38.860Z,10.78208
2022-08-08T04:20:41.019Z,10.243558
2022-08-08T04:25:42.756Z,10.427698
2022-08-08T04:30:44.993Z,10.397696
2022-08-08T04:35:50.934Z,10.20969
2022-08-08T04:40:54.700Z,9.784258
2022-08-08T04:45:56.364Z,9.677466
2022-08-08T04:50:58.175Z,9.47326
2022-08-08T04:56:00.060Z,9.839432
2022-08-08T05:01:09.090Z,9.06388
2022-08-08T05:06:18.459Z,9.691864
2022-08-08T05:11:29.606Z,9.462104
2022-08-08T05:16:54.787Z,9.026932
2022-08-08T05:22:02.399Z,8.713598
2022-08-08T05:27:04.121Z,8.994432
2022-08-08T05:32:06.572Z,8.539122
2022-08-08T05:37:18.682Z,8.511914
2022-08-08T05:42:25.512Z,8.987934
2022-08-08T05:47:41.695Z,9.141662
2022-08-08T05:53:53.963Z,9.246256
2022-08-08T06:00:00.822Z,9.025764
2022-08-08T06:05:34.955Z,9.241126
2022-08-08T06:10:39.326Z,8.61165
2022-08-08T06:15:51.051Z,8.84479
2022-08-08T06:20:56.493Z,8.986318
2022-08-08T06:26:44.059Z,8.657394
2022-08-08T06:31:52.607Z,9.107088
2022-08-08T06:37:25.178Z,8.867898
2022-08-08T06:42:28.340Z,8.620608
2022-08-08T06:47:33.761Z,8.89482
2022-08-08T06:52:53.675Z,9.578846
2022-08-08T06:58:00.702Z,9.090912
2022-08-08T07:03:05.466Z,9.797178
2022-08-08T07:08:07.208Z,9.349358
2022-08-08T07:13:10.663Z,9.263624
2022-08-08T07:18:35.113Z,9.983692
2022-08-08T07:24:02.000Z,9.544582
2022-08-08T07:29:08.227Z,10.081268
2022-08-08T07:34:26.651Z,9.454724
2022-08-08T07:39:29.561Z,9.858364
2022-08-08T07:44:43.535Z,9.676532
2022-08-08T07:49:46.277Z,8.42044
2022-08-08T07:54:51.056Z,9.744664
2022-08-08T07:59:52.670Z,10.859156
2022-08-08T08:04:55.262Z,10.406354
2022-08-08T08:09:58.243Z,11.133382
2022-08-08T08:15:04.216Z,11.459078
2022-08-08T08:20:06.774Z,12.133754
2022-08-08T08:25:12.055Z,13.036536
2022-08-08T08:30:19.271Z,12.629802
2022-08-08T08:35:29.900Z,12.65302
2022-08-08T08:41:23.938Z,13.626322
2022-08-08T08:46:26.707Z,14.326618
2022-08-08T08:51:30.063Z,14.72559
2022-08-08T08:56:31.879Z,13.918826
2022-08-08T09:01:33.655Z,15.12809
2022-08-08T09:06:35.478Z,14.754276
2022-08-08T09:11:47.574Z,15.153424
2022-08-08T09:17:11.582Z,14.976354
2022-08-08T09:22:26.152Z,15.272578
2022-08-08T09:27:56.166Z,15.82338
2022-08-08T09:33:54.323Z,15.763876
2022-08-08T09:39:32.784Z,16.324924
2022-08-08T09:44:34.724Z,16.356256
2022-08-08T09:49:42.401Z,17.11934
2022-08-08T09:54:51.543Z,16.596708
2022-08-08T10:00:28.760Z,16.120308
2022-08-08T10:05:36.344Z,17.352654
2022-08-08T10:10:49.803Z,17.567582
2022-08-08T10:16:00.451Z,17.45733
2022-08-08T10:21:08.459Z,16.568808
2022-08-08T10:26:30.796Z,16.52521
2022-08-08T10:31:54.959Z,16.769272
2022-08-08T10:36:59.590Z,17.239742
2022-08-08T10:42:16.251Z,16.746584
2022-08-08T10:47:21.306Z,16.836794
2022-08-08T10:52:23.642Z,17.747474
2022-08-08T10:57:45.221Z,16.799098
2022-08-08T11:02:51.643Z,17.094548
2022-08-08T11:08:30.924Z,16.439586
2022-08-08T11:13:41.114Z,17.344526
2022-08-08T11:19:01.854Z,17.203728
2022-08-08T11:24:05.428Z,16.334544
2022-08-08T11:29:07.259Z,16.494488
2022-08-08T11:34:23.336Z,17.40852
2022-08-08T11:39:37.191Z,16.97538
2022-08-08T11:44:39.167Z,16.607374
2022-08-08T11:49:42.774Z,16.390586
2022-08-08T11:54:46.456Z,16.205498
2022-08-08T12:00:01.868Z,16.420426
2022-08-08T12:05:07.102Z,16.084566
2022-08-08T12:10:09.131Z,16.593166
2022-08-08T12:15:10.946Z,16.526526
2022-08-08T12:20:15.003Z,17.092078
2022-08-08T12:25:17.003Z,15.924092
2022-08-08T12:30:21.689Z,16.065758
2022-08-08T12:35:26.647Z,16.034874
2022-08-08T12:40:29.863Z,16.940072
2022-08-08T12:45:58.483Z,15.798222
2022-08-08T12:51:05.084Z,15.522636
2022-08-08T12:56:19.516Z,15.578436
2022-08-08T13:01:36.560Z,15.70721
2022-08-08T13:06:38.837Z,16.106902
2022-08-08T13:12:34.138Z,15.953756
2022-08-08T13:18:09.182Z,14.91616
2022-08-08T13:23:35.952Z,15.82859
2022-08-08T13:28:42.053Z,15.674386
2022-08-08T13:33:44.099Z,16.154124
2022-08-08T13:38:45.766Z,15.928598
2022-08-08T13:43:49.788Z,15.543304
2022-08-08T13:49:12.241Z,15.74279
2022-08-08T13:55:36.680Z,16.164708
2022-08-08T14:00:45.254Z,15.454586
2022-08-08T14:06:00.920Z,15.560252
2022-08-08T14:11:03.228Z,15.133382
2022-08-08T14:16:04.819Z,15.080434
2022-08-08T14:21:20.962Z,14.920842
2022-08-08T14:26:25.126Z,15.301984
2022-08-08T14:32:05.877Z,14.639532
2022-08-08T14:37:13.535Z,14.720026
2022-08-08T14:42:16.955Z,14.36061
2022-08-08T14:47:21.727Z,14.441376
2022-08-08T14:52:23.812Z,14.555142
2022-08-08T14:58:03.372Z,14.383556
2022-08-08T15:03:15.616Z,14.249394
2022-08-08T15:08:22.055Z,14.1161
2022-08-08T15:13:39.709Z,14.268716
2022-08-08T15:18:44.092Z,13.91751
2022-08-08T15:23:52.762Z,13.668766
2022-08-08T15:28:56.146Z,13.18242
2022-08-08T15:33:59.018Z,13.11692
2022-08-08T15:39:01.561Z,12.82063
2022-08-08T15:44:03.696Z,12.438606
2022-08-08T15:49:05.539Z,12.891746
2022-08-08T15:54:07.504Z,12.724312
2022-08-08T15:59:20.921Z,12.43463
2022-08-08T16:05:14.082Z,12.08995
2022-08-08T16:13:15.665Z,12.57426
2022-08-08T16:18:32.044Z,12.25942
2022-08-08T16:23:34.972Z,12.260302
2022-08-08T16:28:36.823Z,12.088186
2022-08-08T16:33:40.162Z,11.884738
2022-08-08T16:38:47.746Z,12.00875
2022-08-08T16:43:56.090Z,11.794094
2022-08-08T16:48:57.998Z,11.548878
2022-08-08T16:55:24.088Z,11.401038
2022-08-08T17:00:58.143Z,11.129186
2022-08-08T17:06:01.106Z,10.97246
2022-08-08T17:11:11.120Z,11.401148
2022-08-08T17:16:15.093Z,10.691054
2022-08-08T17:21:17.404Z,11.069278
2022-08-08T17:26:29.386Z,10.984984
2022-08-08T17:31:45.891Z,10.670158
2022-08-08T17:37:01.164Z,10.508354
2022-08-08T17:42:05.533Z,9.90519
2022-08-08T17:47:09.482Z,10.639532
2022-08-08T17:52:11.622Z,10.478462
2022-08-08T17:57:14.508Z,10.368562
2022-08-08T18:02:21.202Z,10.048172
2022-08-08T18:08:01.789Z,9.903302
2022-08-08T18:13:07.497Z,9.808696
2022-08-08T18:18:28.632Z,9.589196
2022-08-08T18:23:33.748Z,9.515948
2022-08-08T18:28:53.969Z,9.779414
2022-08-08T18:34:25.063Z,9.529302
2022-08-08T18:39:29.332Z,9.488864
2022-08-08T18:44:33.042Z,9.518704
2022-08-08T18:49:57.998Z,9.46547
2022-08-08T18:55:10.537Z,9.020906
2022-08-08T19:00:15.919Z,8.651244
2022-08-08T19:05:21.323Z,8.445002
2022-08-08T19:10:22.986Z,9.075904
2022-08-08T19:15:34.045Z,9.272458
2022-08-08T19:20:36.424Z,9.025764
2022-08-08T19:26:01.677Z,8.709784
2022-08-08T19:31:22.883Z,8.936054
2022-08-08T19:36:33.737Z,8.870296
2022-08-08T19:41:35.489Z,8.784076
2022-08-08T19:46:37.661Z,9.025316
2022-08-08T19:51:41.589Z,8.363912
2022-08-08T19:56:48.811Z,7.9316
2022-08-08T20:02:03.509Z,7.97425
2022-08-08T20:08:28.648Z,7.968944
2022-08-08T20:14:13.173Z,7.67519
2022-08-08T20:19:42.379Z,7.965988
2022-08-08T20:24:45.380Z,7.793152
2022-08-08T20:29:55.271Z,7.543054
2022-08-08T20:35:01.286Z,7.70133
2022-08-08T20:40:03.638Z,7.284894
2022-08-08T20:45:05.284Z,7.561442
2022-08-08T20:50:10.241Z,8.33319
2022-08-08T20:55:16.268Z,8.319498
2022-08-08T21:00:27.567Z,8.358782
2022-08-08T21:05:31.615Z,8.205812
2022-08-08T21:10:33.789Z,7.725344
2022-08-08T21:16:06.030Z,7.93909
2022-08-08T21:21:38.550Z,8.474842
2022-08-08T21:26:41.020Z,8.2077
2022-08-08T21:31:57.860Z,7.972472
2022-08-08T21:37:05.269Z,7.63192
2022-08-08T21:42:13.179Z,7.49146
2022-08-08T21:48:04.478Z,7.59163
2022-08-08T21:54:31.915Z,7.139738
2022-08-08T22:00:02.223Z,7.281962
2022-08-08T22:05:05.133Z,7.182226
2022-08-08T22:10:09.354Z,7.189892
2022-08-08T22:15:11.209Z,7.066614
2022-08-08T22:20:18.641Z,7.084254
2022-08-08T22:25:26.164Z,7.345384
2022-08-08T22:30:29.372Z,7.325518
2022-08-08T22:36:05.601Z,6.45042
2022-08-08T22:41:16.428Z,6.69269
2022-08-08T22:46:23.524Z,7.182984
2022-08-08T22:51:28.975Z,6.988656
2022-08-08T22:56:31.020Z,6.62738
2022-08-08T23:02:03.574Z,6.981438
2022-08-08T23:07:05.959Z,6.714444
2022-08-08T23:12:28.860Z,6.63148
2022-08-08T23:17:54.174Z,5.714156
2022-08-08T23:22:59.617Z,5.388922
2022-08-08T23:28:01.540Z,5.337142
2022-08-08T23:33:03.976Z,4.907476
2022-08-08T23:38:06.582Z,4.655194
2022-08-08T23:43:08.175Z,4.62842
2022-08-08T23:49:00.076Z,4.363504
2022-08-08T23:54:41.377Z,4.30084
